Time;durP1;ratioP1;P1;durP2;ratioP2;P2;SDS_P1;SDS_P2;PMS_P1;PMS_P2;Temp;Humidity;BMP_temperature;BMP_pressure;BME280_temperature;BME280_humidity;BME280_pressure;Samples;Min_cycle;Max_cycle;Signal;HPM_P1;HPM_P2
2021/04/20 00:00:22;;;;;;;26.88;17.13;;;8.50;87.50;;;8.38;74.21;100808.59;4995267;28;20136;-79
2021/04/20 00:02:49;;;;;;;33.47;19.10;;;8.40;87.40;;;8.35;74.13;100811.63;4994154;28;20038;-80
2021/04/20 00:05:17;;;;;;;30.75;17.92;;;8.40;87.30;;;8.35;74.32;100813.50;4995601;28;20057;-80
2021/04/20 00:07:45;;;;;;;30.05;17.88;;;8.40;87.70;;;8.32;73.67;100808.38;4995830;28;20134;-80
2021/04/20 00:10:15;;;;;;;29.58;18.10;;;8.40;87.50;;;8.28;74.02;100807.03;4993580;28;20061;-80
2021/04/20 00:12:43;;;;;;;27.88;17.33;;;8.40;87.50;;;8.26;74.13;100800.91;4993781;28;20078;-80
2021/04/20 00:15:17;;;;;;;25.90;16.10;;;8.30;87.30;;;8.25;73.36;100801.94;4994958;28;20677;-79
2021/04/20 00:17:44;;;;;;;27.48;17.25;;;8.30;87.30;;;8.22;74.15;100798.53;4995752;28;20045;-80
2021/04/20 00:20:13;;;;;;;29.83;16.92;;;8.30;87.50;;;8.22;74.17;100803.97;4995602;28;20046;-80
2021/04/20 00:22:41;;;;;;;27.00;16.60;;;8.30;87.30;;;8.20;73.45;100792.41;4995107;28;20054;-80
2021/04/20 00:25:09;;;;;;;27.88;16.67;;;8.30;87.50;;;8.14;73.40;100795.78;4995159;28;20078;-80
2021/04/20 00:27:36;;;;;;;27.80;17.40;;;8.20;87.10;;;8.10;73.37;100791.69;4995699;28;20861;-80
2021/04/20 00:30:05;;;;;;;30.05;17.98;;;8.20;87.10;;;8.07;73.39;100783.88;4995390;28;20120;-80
2021/04/20 00:32:32;;;;;;;25.65;16.58;;;8.20;87.10;;;8.08;73.40;100780.16;4995579;28;20061;-80
2021/04/20 00:34:59;;;;;;;26.85;17.10;;;8.10;87.10;;;8.04;73.63;100781.50;4994715;28;20039;-80
2021/04/20 00:37:26;;;;;;;32.53;18.63;;;8.10;87.10;;;7.96;74.06;100781.47;4995501;28;20046;-80
2021/04/20 00:39:53;;;;;;;27.95;16.90;;;8.10;87.30;;;7.94;73.46;100773.50;4994404;28;20054;-80
2021/04/20 00:42:20;;;;;;;31.83;17.98;;;8.10;87.10;;;7.96;73.91;100776.88;4995286;28;20047;-80
2021/04/20 00:44:46;;;;;;;28.48;17.70;;;8.10;87.30;;;7.95;73.64;100777.03;4993401;28;20070;-80
2021/04/20 00:47:13;;;;;;;34.08;18.40;;;8.00;87.30;;;7.91;74.12;100776.50;4995523;28;20078;-80
2021/04/20 00:49:40;;;;;;;31.27;18.33;;;8.00;87.20;;;7.91;73.59;100778.38;4995147;28;20057;-80
2021/04/20 00:52:08;;;;;;;29.02;17.90;;;8.00;87.30;;;7.85;73.49;100779.03;4988149;28;20050;-80
2021/04/20 00:54:35;;;;;;;33.85;18.00;;;7.90;87.10;;;7.86;73.77;100768.00;4994066;28;20057;-80
2021/04/20 00:57:02;;;;;;;27.23;17.65;;;7.90;87.30;;;7.83;73.91;100779.19;4994814;28;20065;-80
2021/04/20 00:59:29;;;;;;;28.60;17.50;;;7.80;87.10;;;7.78;73.59;100776.94;4995470;28;20070;-80
2021/04/20 01:01:55;;;;;;;30.10;17.65;;;7.80;87.00;;;7.76;73.31;100773.53;4995002;28;20049;-80
2021/04/20 01:04:22;;;;;;;30.23;17.48;;;7.80;87.40;;;7.74;73.85;100772.00;4987657;28;20065;-80
2021/04/20 01:06:50;;;;;;;27.42;17.15;;;7.80;87.10;;;7.75;72.99;100766.44;4994670;28;20074;-80
2021/04/20 01:09:19;;;;;;;28.63;16.52;;;7.80;87.30;;;7.72;73.41;100766.75;4994567;28;20121;-80
2021/04/20 01:11:47;;;;;;;27.52;17.35;;;7.80;87.40;;;7.75;73.86;100771.00;4994689;28;20046;-80
2021/04/20 01:14:15;;;;;;;29.55;16.98;;;7.70;87.70;;;7.72;73.77;100769.47;4994647;28;20109;-80
2021/04/20 01:16:41;;;;;;;25.65;15.98;;;7.70;87.60;;;7.66;74.13;100764.69;4995062;28;20046;-80
2021/04/20 01:19:09;;;;;;;27.23;16.58;;;7.70;87.80;;;7.63;73.94;100767.69;4995333;28;20073;-80
2021/04/20 01:21:38;;;;;;;27.50;16.55;;;7.70;87.70;;;7.59;73.47;100769.03;4995155;28;20042;-80
2021/04/20 01:24:23;;;;;;;29.20;16.67;;;7.70;87.50;;;7.62;74.32;100757.91;4993978;28;20046;-80
2021/04/20 01:26:50;;;;;;;28.05;16.95;;;7.70;87.90;;;7.60;73.10;100763.47;4988749;28;20046;-80
2021/04/20 01:29:17;;;;;;;25.25;16.20;;;7.60;87.40;;;7.58;73.17;100767.34;4994386;28;20053;-80
2021/04/20 01:31:46;;;;;;;26.52;16.13;;;7.60;87.30;;;7.59;73.27;100766.31;4994443;28;20042;-80
2021/04/20 01:34:14;;;;;;;26.50;15.60;;;7.60;87.60;;;7.55;73.31;100765.78;4993804;28;20769;-80
2021/04/20 01:36:41;;;;;;;25.75;16.08;;;7.60;87.30;;;7.53;73.65;100758.84;4994557;28;20046;-80
2021/04/20 01:39:10;;;;;;;24.80;15.20;;;7.70;87.30;;;7.51;73.86;100767.13;4994500;28;20054;-80
2021/04/20 01:41:38;;;;;;;27.58;15.45;;;7.50;87.40;;;7.51;73.12;100760.88;4994996;28;20125;-80
2021/04/20 01:44:07;;;;;;;28.58;17.15;;;7.50;87.40;;;7.49;73.21;100762.88;4987598;28;20042;-80
2021/04/20 01:46:35;;;;;;;26.17;15.95;;;7.50;87.60;;;7.44;73.17;100764.22;4994766;28;20050;-80
2021/04/20 01:49:02;;;;;;;25.73;16.63;;;7.50;87.40;;;7.42;73.61;100759.94;4994633;28;20586;-79
2021/04/20 01:51:29;;;;;;;27.83;14.95;;;7.40;87.30;;;7.35;73.15;100765.16;4992707;28;20046;-80
2021/04/20 01:53:56;;;;;;;26.00;15.25;;;7.40;87.10;;;7.37;73.32;100765.00;4993332;28;20125;-80
2021/04/20 01:56:23;;;;;;;22.55;14.15;;;7.40;87.40;;;7.37;73.14;100754.16;4994828;28;20074;-80
2021/04/20 01:58:52;;;;;;;26.48;16.13;;;7.40;87.20;;;7.30;72.94;100759.34;4994347;28;20043;-80
2021/04/20 02:01:23;;;;;;;26.40;15.95;;;7.30;87.20;;;7.27;72.64;100756.94;4994434;28;20498;-80
2021/04/20 02:03:52;;;;;;;26.95;17.05;;;7.30;87.30;;;7.31;73.64;100761.06;4993079;28;20487;-80
2021/04/20 02:06:22;;;;;;;25.70;15.50;;;7.30;87.70;;;7.29;73.06;100764.91;4995261;28;20133;-80
2021/04/20 02:08:49;;;;;;;27.67;15.65;;;7.30;87.30;;;7.26;73.14;100757.13;4995053;28;20043;-80
2021/04/20 02:11:19;;;;;;;29.40;15.40;;;7.20;87.30;;;7.21;73.22;100763.84;4994491;28;20463;-80
2021/04/20 02:13:46;;;;;;;25.03;14.97;;;7.20;87.40;;;7.19;73.15;100762.31;4993329;28;20050;-79
2021/04/20 02:16:15;;;;;;;25.52;15.65;;;7.20;87.20;;;7.16;73.38;100762.59;4992666;28;20046;-80
2021/04/20 02:18:45;;;;;;;25.50;15.82;;;7.30;87.40;;;7.16;73.09;100751.78;4994609;28;20451;-80
2021/04/20 02:21:13;;;;;;;25.05;15.70;;;7.20;87.40;;;7.17;73.27;100758.91;4994787;28;20057;-80
2021/04/20 02:23:42;;;;;;;26.35;16.65;;;7.10;87.50;;;7.15;73.05;100759.06;4994495;28;20047;-79
2021/04/20 02:26:12;;;;;;;28.75;15.85;;;7.10;87.60;;;7.12;72.79;100761.22;4993980;28;20081;-80
2021/04/20 02:28:40;;;;;;;27.52;16.02;;;7.10;87.60;;;7.07;73.60;100758.16;4994324;28;20042;-80
2021/04/20 02:31:09;;;;;;;26.38;15.32;;;7.10;87.60;;;7.02;73.67;100762.16;4994294;28;20113;-80
2021/04/20 02:33:38;;;;;;;24.25;15.05;;;7.20;87.60;;;6.96;73.72;100760.06;4993939;28;20053;-80
2021/04/20 02:36:06;;;;;;;27.27;15.70;;;7.00;87.40;;;6.98;73.68;100766.19;4994851;28;20042;-80
2021/04/20 02:38:35;;;;;;;24.35;15.25;;;7.00;87.50;;;6.99;73.03;100770.59;4996938;28;20050;-80
2021/04/20 02:41:04;;;;;;;25.98;14.98;;;7.00;87.60;;;6.99;73.63;100767.06;4996998;28;20089;-80
2021/04/20 02:43:33;;;;;;;24.15;15.30;;;7.00;87.60;;;6.97;73.29;100764.50;4983105;28;20050;-80
2021/04/20 02:46:03;;;;;;;24.48;15.10;;;7.00;87.60;;;6.98;73.71;100762.63;4997106;28;20070;-80
2021/04/20 02:48:30;;;;;;;26.65;15.85;;;7.00;87.70;;;7.00;74.11;100761.47;4996834;28;20068;-80
2021/04/20 02:50:58;;;;;;;23.67;14.73;;;7.00;88.20;;;7.00;73.58;100764.16;4991729;28;20054;-80
2021/04/20 02:53:26;;;;;;;24.77;15.55;;;7.00;87.70;;;6.98;73.96;100760.75;4996402;28;20046;-80
2021/04/20 02:55:53;;;;;;;28.88;15.30;;;7.00;87.80;;;7.01;73.08;100757.75;4996912;28;20050;-80
2021/04/20 02:58:23;;;;;;;27.90;14.85;;;7.00;87.70;;;6.97;73.54;100760.94;4997269;28;20078;-80
2021/04/20 03:00:57;;;;;;;24.88;15.18;;;6.90;87.60;;;6.91;73.34;100767.81;4994340;28;20045;-80
2021/04/20 03:03:24;;;;;;;25.48;14.50;;;6.90;87.50;;;6.88;73.32;100760.00;4996589;28;20042;-80
2021/04/20 03:05:51;;;;;;;23.65;13.88;;;6.90;87.50;;;6.88;73.27;100764.56;4996626;28;20128;-80
2021/04/20 03:08:19;;;;;;;25.10;15.23;;;6.90;87.60;;;6.83;73.57;100754.19;4996646;28;20549;-80
2021/04/20 03:10:47;;;;;;;24.15;14.02;;;6.90;87.60;;;6.84;73.39;100750.50;4997010;28;20042;-80
2021/04/20 03:13:15;;;;;;;23.20;15.00;;;6.80;87.50;;;6.82;73.32;100750.66;4996008;28;20106;-80
2021/04/20 03:15:43;;;;;;;22.73;13.82;;;6.80;87.60;;;6.82;73.39;100749.81;4996328;28;20050;-79
2021/04/20 03:18:11;;;;;;;24.38;14.48;;;6.80;87.70;;;6.83;73.54;100751.50;4996441;28;20118;-79
2021/04/20 03:20:37;;;;;;;23.67;14.77;;;6.80;88.00;;;6.82;73.74;100749.81;4996573;28;20789;-80
2021/04/20 03:23:05;;;;;;;22.27;13.77;;;6.80;88.00;;;6.81;73.76;100740.81;4995989;28;20050;-80
2021/04/20 03:25:35;;;;;;;25.17;14.93;;;6.80;88.00;;;6.79;73.38;100755.53;4996428;28;20674;-80
2021/04/20 03:28:02;;;;;;;24.55;14.00;;;6.80;87.90;;;6.76;73.47;100755.81;4996235;28;20095;-80
2021/04/20 03:30:31;;;;;;;22.00;13.63;;;6.80;88.10;;;6.79;73.25;100745.53;4996150;28;20517;-79
2021/04/20 03:33:13;;;;;;;21.02;13.55;;;6.80;88.20;;;6.79;73.77;100739.28;4995985;28;20050;-80
2021/04/20 03:35:46;;;;;;;;;;;6.80;88.30;;;6.74;73.34;100745.16;4997594;28;20144;-79
2021/04/20 03:38:20;;;;;;;21.33;13.10;;;6.80;88.20;;;6.72;74.07;100740.91;4991257;28;19929;-80
2021/04/20 03:40:53;;;;;;;22.20;14.57;;;6.80;88.20;;;6.77;73.92;100739.44;4997492;28;20058;-80
2021/04/20 03:43:25;;;;;;;23.30;14.05;;;6.80;88.50;;;6.76;74.25;100734.19;4996572;28;20491;-80
2021/04/20 03:45:59;;;;;;;25.98;14.23;;;6.80;88.40;;;6.72;73.90;100740.91;4997499;28;20046;-80
2021/04/20 03:48:35;;;;;;;22.30;13.40;;;6.80;88.10;;;6.69;74.17;100738.53;4996968;28;20104;-80
2021/04/20 03:51:09;;;;;;;21.67;14.00;;;6.80;88.00;;;6.70;73.92;100734.81;4996754;28;20056;-80
2021/04/20 03:53:39;;;;;;;23.02;13.07;;;6.80;88.20;;;6.69;73.88;100733.13;4994534;28;20050;-80
2021/04/20 03:56:08;;;;;;;20.65;12.93;;;6.80;88.00;;;6.64;73.66;100737.13;4996614;28;20470;-80
2021/04/20 03:58:37;;;;;;;21.63;13.52;;;6.70;87.90;;;6.61;73.29;100737.44;4996578;28;20042;-80
2021/04/20 04:01:08;;;;;;;20.65;12.70;;;6.70;87.80;;;6.57;73.25;100733.34;4996292;28;20052;-80
2021/04/20 04:03:37;;;;;;;21.83;12.82;;;6.60;87.50;;;6.59;73.26;100728.63;4995380;28;20050;-80
2021/04/20 04:06:07;;;;;;;21.63;13.05;;;6.80;88.00;;;6.60;73.23;100729.47;4996650;28;20089;-80
2021/04/20 04:08:37;;;;;;;20.83;12.98;;;6.60;88.00;;;6.55;73.40;100731.78;4996626;28;20069;-80
2021/04/20 04:11:06;;;;;;;25.73;13.43;;;6.60;88.10;;;6.52;73.51;100730.22;4996441;28;20057;-80
2021/04/20 04:13:36;;;;;;;23.80;13.30;;;6.60;88.80;;;6.53;73.33;100734.66;4995527;28;20450;-80
2021/04/20 04:16:05;;;;;;;20.55;12.88;;;6.70;88.00;;;6.53;73.72;100733.78;4996392;28;20101;-80
2021/04/20 04:18:33;;;;;;;22.50;13.25;;;6.50;87.90;;;6.51;73.57;100728.56;4996348;28;20066;-80
2021/04/20 04:21:04;;;;;;;23.02;13.63;;;6.50;90.00;;;6.50;73.48;100729.53;4996677;28;20049;-80
2021/04/20 04:23:37;;;;;;;23.83;14.10;;;6.50;90.00;;;6.50;73.30;100726.84;4995487;28;20057;-80
2021/04/20 04:26:11;;;;;;;22.13;12.50;;;6.50;88.10;;;6.40;73.59;100728.75;4996016;28;20046;-80
2021/04/20 04:28:40;;;;;;;25.73;13.60;;;6.50;88.10;;;6.40;73.71;100731.47;4996893;28;20050;-80
2021/04/20 04:31:08;;;;;;;20.35;12.63;;;6.40;88.00;;;6.40;73.56;100723.34;4994881;28;20077;-79
2021/04/20 04:33:36;;;;;;;27.20;13.63;;;6.40;88.10;;;6.38;73.62;100719.97;4995050;28;20089;-80
2021/04/20 04:36:05;;;;;;;22.45;13.48;;;6.40;87.90;;;6.34;73.53;100723.94;4995663;28;20049;-80
2021/04/20 04:38:33;;;;;;;20.95;12.55;;;6.40;88.00;;;6.33;73.23;100723.09;4994909;28;20790;-80
2021/04/20 04:41:00;;;;;;;22.10;13.57;;;6.40;88.20;;;6.30;73.81;100727.97;4994389;28;20065;-81
2021/04/20 04:43:28;;;;;;;21.05;13.20;;;6.40;88.10;;;6.30;73.82;100727.97;4994834;28;20065;-81
2021/04/20 04:45:56;;;;;;;22.30;12.82;;;6.40;88.10;;;6.29;73.84;100720.88;4995687;28;20526;-82
2021/04/20 04:48:23;;;;;;;20.55;12.68;;;6.40;87.80;;;6.30;73.38;100725.25;4988336;28;20054;-81
2021/04/20 04:50:52;;;;;;;20.52;13.50;;;6.40;87.80;;;6.32;74.05;100725.94;4988304;28;20053;-81
2021/04/20 04:53:20;;;;;;;21.63;12.23;;;6.40;88.30;;;6.38;74.02;100725.38;4994387;28;20102;-81
2021/04/20 04:55:46;;;;;;;24.15;13.75;;;6.40;88.40;;;6.38;73.59;100719.97;4993837;28;20077;-82
2021/04/20 04:58:14;;;;;;;23.42;13.68;;;6.40;88.30;;;6.36;74.25;100722.81;4995315;28;20046;-82
2021/04/20 05:00:43;;;;;;;20.30;12.77;;;6.40;88.30;;;6.37;74.04;100726.34;4994672;28;20104;-82
2021/04/20 05:03:10;;;;;;;21.52;12.50;;;6.40;88.30;;;6.34;74.24;100726.66;4994232;28;20054;-82
2021/04/20 05:05:39;;;;;;;23.00;14.30;;;6.40;88.40;;;6.35;74.18;100725.66;4995282;28;20070;-82
2021/04/20 05:08:07;;;;;;;26.13;14.27;;;6.50;88.70;;;6.44;74.49;100731.00;4994860;28;20052;-82
2021/04/20 05:10:34;;;;;;;21.90;13.60;;;6.50;88.80;;;6.43;74.77;100731.97;4995177;28;20057;-82
2021/04/20 05:13:01;;;;;;;21.98;13.25;;;6.60;88.90;;;6.47;74.21;100740.66;4992720;28;20054;-81
2021/04/20 05:15:29;;;;;;;24.27;14.13;;;6.80;89.10;;;6.50;74.84;100739.50;4994204;28;20050;-82
2021/04/20 05:17:58;;;;;;;25.92;13.55;;;6.70;89.00;;;6.50;75.10;100744.91;4994102;28;20049;-81
2021/04/20 05:20:25;;;;;;;23.30;13.60;;;6.70;88.90;;;6.57;75.39;100740.59;4994153;28;20495;-81
2021/04/20 05:22:56;;;;;;;23.80;13.73;;;6.70;89.00;;;6.59;75.08;100744.00;4992566;28;20450;-82
2021/04/20 05:25:23;;;;;;;25.75;13.68;;;6.70;89.10;;;6.61;74.84;100747.41;4993132;28;20061;-81
2021/04/20 05:27:51;;;;;;;25.08;13.85;;;6.80;89.30;;;6.67;75.40;100743.25;4992259;28;20126;-81
2021/04/20 05:30:19;;;;;;;22.08;12.88;;;6.80;89.30;;;6.73;74.65;100738.06;4993866;28;20054;-83
2021/04/20 05:32:50;;;;;;;22.00;12.60;;;6.90;89.30;;;6.72;75.84;100738.19;4994315;28;20096;-82
2021/04/20 05:35:17;;;;;;;24.85;13.27;;;6.90;89.50;;;6.76;75.91;100739.59;4996029;28;20454;-82
2021/04/20 05:37:46;;;;;;;20.77;12.30;;;7.00;89.70;;;6.78;76.23;100732.19;4995235;28;20049;-82
2021/04/20 05:40:16;;;;;;;22.05;12.80;;;7.00;89.80;;;6.82;75.95;100745.25;4995242;28;20057;-82
2021/04/20 05:42:44;;;;;;;22.70;14.15;;;7.10;90.00;;;6.89;76.14;100745.47;4994282;28;20042;-82
2021/04/20 05:45:15;;;;;;;25.98;13.65;;;7.10;90.00;;;6.96;75.91;100741.13;4995205;28;20042;-81
2021/04/20 05:47:44;;;;;;;27.77;13.55;;;7.20;89.90;;;6.96;75.82;100743.84;4994422;28;20050;-82
2021/04/20 05:50:17;;;;;;;24.17;14.43;;;7.30;89.80;;;7.01;76.33;100741.53;4990300;28;20074;-81
2021/04/20 05:52:45;;;;;;;24.52;13.48;;;7.30;90.00;;;7.12;76.11;100739.56;4993663;28;20088;-82
2021/04/20 05:55:13;;;;;;;22.92;13.88;;;7.50;90.00;;;7.20;75.45;100736.94;4993201;28;20070;-82
2021/04/20 05:57:40;;;;;;;24.80;14.40;;;7.40;89.50;;;7.27;75.26;100738.00;4993616;28;20077;-81
2021/04/20 06:00:08;;;;;;;24.55;14.00;;;7.50;89.40;;;7.30;75.50;100745.81;4993502;28;20038;-81
2021/04/20 06:02:43;;;;;;;23.38;13.93;;;7.50;89.40;;;7.34;75.23;100741.78;4991895;28;20525;-81
2021/04/20 06:05:13;;;;;;;24.38;14.00;;;7.60;89.30;;;7.39;75.83;100747.59;4992635;28;20077;-81
2021/04/20 06:07:43;;;;;;;21.55;12.82;;;7.70;89.10;;;7.43;75.29;100740.00;4994165;28;20400;-81
2021/04/20 06:10:14;;;;;;;24.67;14.73;;;7.80;89.00;;;7.48;75.74;100744.91;4992176;28;20042;-82
2021/04/20 06:12:41;;;;;;;23.17;14.40;;;7.90;89.00;;;7.56;75.63;100750.41;4987562;28;20049;-80
2021/04/20 06:15:10;;;;;;;26.80;14.25;;;7.90;88.90;;;7.63;76.27;100746.03;4994156;28;20133;-82
2021/04/20 06:17:39;;;;;;;24.63;14.57;;;8.00;89.00;;;7.68;75.63;100741.00;4993400;28;20077;-81
2021/04/20 06:20:10;;;;;;;23.80;14.05;;;8.10;89.20;;;7.76;75.89;100743.75;4991156;28;20063;-81
2021/04/20 06:22:39;;;;;;;24.33;14.68;;;8.20;88.90;;;7.83;75.10;100739.38;4993999;28;20034;-81
2021/04/20 06:25:12;;;;;;;28.27;15.93;;;8.30;88.80;;;7.90;75.34;100746.88;4991880;28;20506;-82
2021/04/20 06:27:40;;;;;;;28.17;16.05;;;8.40;88.70;;;7.96;75.68;100748.94;4986530;28;20051;-81
2021/04/20 06:30:10;;;;;;;27.15;15.50;;;8.40;88.30;;;8.03;75.51;100744.56;4980515;28;20121;-81
2021/04/20 06:32:38;;;;;;;24.83;15.27;;;8.50;88.40;;;8.09;75.09;100738.50;4987817;28;20056;-81
2021/04/20 06:35:07;;;;;;;26.80;15.35;;;8.60;88.30;;;8.14;75.51;100746.97;4994835;28;20145;-81
2021/04/20 06:37:36;;;;;;;23.27;15.48;;;8.70;88.10;;;8.19;75.16;100749.22;4995227;28;20495;-80
2021/04/20 06:40:09;;;;;;;28.67;16.10;;;8.80;88.10;;;8.27;75.07;100751.09;4988464;28;20054;-81
2021/04/20 06:42:46;;;;;;;26.00;16.02;;;8.90;87.70;;;8.34;74.87;100746.69;4992506;28;20045;-81
2021/04/20 06:45:19;;;;;;;27.60;16.33;;;9.00;87.40;;;8.39;74.80;100749.78;4994010;28;20051;-81
2021/04/20 06:47:56;;;;;;;26.58;17.17;;;9.00;87.10;;;8.47;75.00;100746.28;4994531;28;20070;-81
2021/04/20 06:50:23;;;;;;;31.17;18.08;;;9.10;86.90;;;8.51;76.14;100745.78;4993348;28;20797;-80
2021/04/20 06:52:55;;;;;;;27.05;16.65;;;9.30;87.60;;;8.59;75.75;100747.69;4994619;28;20042;-81
2021/04/20 06:55:28;;;;;;;26.38;16.48;;;9.40;87.60;;;8.66;75.48;100742.44;4994769;28;20053;-81
2021/04/20 06:58:07;;;;;;;26.73;16.15;;;9.50;86.40;;;8.71;74.89;100749.03;4993494;28;20050;-81
2021/04/20 07:00:43;;;;;;;28.65;17.00;;;9.60;85.90;;;8.80;75.10;100739.06;4987650;28;20105;-81
2021/04/20 07:03:21;;;;;;;29.23;16.80;;;9.70;86.00;;;8.88;75.39;100744.50;4986943;28;20043;-81
2021/04/20 07:05:53;;;;;;;28.23;16.77;;;9.80;85.70;;;8.96;75.52;100747.22;4996012;28;20049;-81
2021/04/20 07:08:31;;;;;;;27.23;16.50;;;10.00;85.90;;;9.05;74.83;100739.09;4990615;28;20061;-81
2021/04/20 07:11:08;;;;;;;30.23;16.92;;;10.10;85.10;;;9.11;74.54;100739.25;5006953;28;20054;-81
2021/04/20 07:13:39;;;;;;;29.38;16.15;;;10.20;83.90;;;9.19;74.51;100738.41;4989742;28;20050;-81
2021/04/20 07:16:18;;;;;;;29.95;17.65;;;10.30;84.10;;;9.28;74.58;100733.81;4997175;28;20557;-82
2021/04/20 07:19:21;;;;;;;25.25;16.33;;;10.50;83.70;;;9.37;74.62;100733.66;4996653;28;20746;-81
2021/04/20 07:22:12;;;;;;;27.42;15.80;;;10.60;84.00;;;9.45;73.43;100740.09;4998159;28;20049;-81
2021/04/20 07:25:09;;;;;;;26.17;15.32;;;10.70;81.30;;;9.51;73.25;100731.25;4997247;28;20145;-81
2021/04/20 07:27:53;;;;;;;25.15;15.43;;;10.80;81.00;;;9.59;73.70;100729.38;4997191;28;20058;-81
2021/04/20 07:30:28;;;;;;;28.42;15.93;;;10.90;83.00;;;9.66;73.65;100726.78;4996942;28;20046;-81
2021/04/20 07:33:10;;;;;;;26.38;16.52;;;11.00;81.70;;;9.81;74.79;100728.81;4996903;28;20112;-81
2021/04/20 07:35:44;;;;;;;29.25;16.42;;;11.10;83.00;;;9.85;74.17;100722.84;4997505;28;20046;-81
2021/04/20 07:38:24;;;;;;;25.10;15.20;;;11.20;81.30;;;9.94;73.81;100729.09;4996469;28;20057;-81
2021/04/20 07:41:04;;;;;;;27.83;16.48;;;11.40;81.20;;;10.04;74.27;100727.03;4995194;28;20050;-81
2021/04/20 07:43:50;;;;;;;27.40;15.85;;;11.50;81.50;;;10.14;74.15;100724.94;4995067;28;20046;-81
2021/04/20 07:46:26;;;;;;;28.42;16.80;;;11.60;81.40;;;10.24;73.71;100726.59;4992525;28;20055;-81
2021/04/20 07:49:00;;;;;;;30.45;17.13;;;11.70;80.60;;;10.29;73.50;100730.47;4997029;28;20054;-81
2021/04/20 07:51:37;;;;;;;31.67;16.48;;;11.80;79.90;;;10.34;72.38;100730.00;4998221;28;20049;-81
2021/04/20 07:54:11;;;;;;;27.85;15.52;;;11.90;78.30;;;10.36;72.16;100734.22;4994809;28;20047;-81
2021/04/20 07:56:46;;;;;;;31.92;18.00;;;12.00;77.70;;;10.55;73.38;100726.66;4993572;28;20120;-81
2021/04/20 07:59:19;;;;;;;29.38;16.52;;;12.10;79.60;;;10.66;72.40;100728.09;4996990;28;20042;-81
2021/04/20 08:01:55;;;;;;;27.85;17.02;;;12.20;78.80;;;10.70;71.48;100721.25;4994928;28;20042;-81
2021/04/20 08:04:49;;;;;;;31.98;16.83;;;12.30;77.30;;;10.72;70.59;100722.78;4994036;28;20049;-81
2021/04/20 08:07:25;;;;;;;28.63;15.30;;;12.30;76.60;;;10.83;70.58;100724.22;4992838;28;20809;-81
2021/04/20 08:09:56;;;;;;;26.05;15.63;;;12.40;76.20;;;10.91;70.39;100720.63;4993255;28;20050;-81
2021/04/20 08:12:28;;;;;;;24.65;14.88;;;12.50;76.70;;;11.00;71.22;100715.94;4993985;28;20739;-81
2021/04/20 08:15:07;;;;;;;26.10;16.10;;;12.60;77.20;;;11.06;69.28;100724.25;4993671;28;20077;-81
2021/04/20 08:17:45;;;;;;;26.17;15.90;;;12.70;75.60;;;11.20;71.81;100714.41;4996153;28;20050;-81
2021/04/20 08:20:15;;;;;;;24.98;15.82;;;12.80;77.20;;;11.23;68.36;100708.59;4996690;28;20404;-81
2021/04/20 08:22:45;;;;;;;22.67;14.65;;;12.80;74.20;;;11.37;67.25;100715.09;4994676;28;20046;-81
2021/04/20 08:25:21;;;;;;;27.05;16.00;;;12.90;73.40;;;11.39;67.16;100709.47;4994603;28;20056;-81
2021/04/20 08:27:57;;;;;;;24.00;14.60;;;13.00;73.10;;;11.40;67.13;100706.53;4996174;28;20096;-81
2021/04/20 08:30:33;;;;;;;28.70;14.90;;;13.10;72.90;;;11.42;67.32;100709.09;4996878;28;20056;-82
2021/04/20 08:33:09;;;;;;;24.20;14.75;;;13.10;72.60;;;11.58;66.52;100706.22;4993680;28;20790;-81
2021/04/20 08:35:37;;;;;;;27.05;15.88;;;13.20;72.30;;;11.67;66.53;100710.56;4995422;28;20073;-81
2021/04/20 08:38:24;;;;;;;26.45;14.43;;;13.30;72.50;;;11.67;65.93;100702.38;4994884;28;20062;-81
2021/04/20 08:41:02;;;;;;;21.52;13.70;;;13.30;71.50;;;11.72;64.20;100702.63;4996248;28;20069;-81
2021/04/20 08:43:47;;;;;;;19.15;12.65;;;13.30;69.60;;;11.82;64.43;100701.50;4996251;28;20042;-81
2021/04/20 08:46:30;;;;;;;23.48;13.40;;;13.40;70.60;;;11.83;64.68;100700.50;4996734;28;20042;-81
2021/04/20 08:49:09;;;;;;;19.33;12.90;;;13.50;70.30;;;11.92;62.53;100697.50;4995185;28;20050;-81
2021/04/20 08:51:44;;;;;;;22.88;14.10;;;13.60;68.40;;;11.97;63.01;100694.19;4994569;28;20050;-81
2021/04/20 08:54:34;;;;;;;20.45;13.70;;;13.70;68.70;;;11.98;63.00;100695.06;4993365;28;20045;-81
2021/04/20 08:57:17;;;;;;;23.30;12.93;;;13.70;68.00;;;12.03;64.07;100698.91;4980978;28;20457;-81
2021/04/20 08:59:58;;;;;;;26.40;14.13;;;13.70;69.40;;;12.07;64.15;100697.50;4981799;28;20480;-81
2021/04/20 09:02:51;;;;;;;27.88;13.60;;;13.80;69.00;;;12.22;63.76;100702.06;4980783;28;20043;-81
2021/04/20 09:05:30;;;;;;;26.05;13.23;;;13.90;69.50;;;12.26;61.38;100690.59;4996820;28;20100;-81
2021/04/20 09:08:15;;;;;;;20.90;13.07;;;14.00;67.30;;;12.21;61.86;100697.66;4998401;28;20046;-81
2021/04/20 09:10:50;;;;;;;21.48;14.05;;;14.00;66.70;;;12.23;62.23;100698.31;4998290;28;20046;-81
2021/04/20 09:13:20;;;;;;;22.10;13.48;;;14.00;66.90;;;12.24;61.78;100700.00;4996874;28;20049;-81
2021/04/20 09:15:51;;;;;;;24.05;14.50;;;14.00;66.90;;;12.31;64.19;100690.00;4996883;28;20066;-81
2021/04/20 09:18:35;;;;;;;23.23;13.57;;;14.00;68.10;;;12.47;63.15;100688.91;4996514;28;20526;-81
2021/04/20 09:21:11;;;;;;;21.10;13.98;;;14.20;68.20;;;12.53;62.77;100685.44;4996287;28;20039;-81
2021/04/20 09:23:53;;;;;;;22.38;13.07;;;14.20;66.80;;;12.54;61.45;100687.13;4995727;28;20042;-81
2021/04/20 09:26:30;;;;;;;22.73;13.88;;;14.20;66.70;;;12.61;63.53;100687.22;4995891;28;20039;-81
2021/04/20 09:29:06;;;;;;;23.50;14.50;;;14.20;68.40;;;12.76;65.04;100687.16;4994731;28;20101;-81
2021/04/20 09:31:40;;;;;;;23.00;14.10;;;14.40;69.80;;;12.78;61.44;100683.19;4994816;28;20054;-81
2021/04/20 09:34:09;;;;;;;20.75;13.98;;;14.40;66.30;;;12.67;60.87;100683.69;4993270;28;20056;-81
2021/04/20 09:36:39;;;;;;;22.92;14.30;;;14.40;64.10;;;12.60;62.67;100690.97;4995405;28;20490;-81
2021/04/20 09:39:08;;;;;;;21.15;13.70;;;14.40;66.10;;;12.64;61.87;100689.53;4995960;28;20089;-81
2021/04/20 09:41:40;;;;;;;27.95;15.13;;;14.40;66.10;;;12.59;60.56;100687.41;4996136;28;20042;-81
2021/04/20 09:44:21;;;;;;;24.42;14.18;;;14.40;65.20;;;12.63;60.81;100688.69;4994874;28;20042;-81
2021/04/20 09:47:12;;;;;;;24.20;13.88;;;14.40;64.90;;;12.74;60.18;100692.81;4998196;28;20077;-81
2021/04/20 09:49:52;;;;;;;24.02;14.40;;;14.50;65.70;;;12.77;61.30;100688.81;4999854;28;20046;-81
2021/04/20 09:52:24;;;;;;;22.02;13.52;;;14.50;64.40;;;12.85;61.71;100692.28;5000086;28;20134;-81
2021/04/20 09:55:00;;;;;;;19.85;13.05;;;14.60;66.40;;;12.88;59.87;100691.03;4999286;28;20049;-81
2021/04/20 09:57:33;;;;;;;21.23;13.95;;;14.60;64.00;;;12.95;59.14;100691.13;5000656;28;20511;-81
2021/04/20 10:00:05;;;;;;;21.95;13.55;;;14.70;64.10;;;12.95;60.20;100699.31;5000198;28;20057;-81
2021/04/20 10:02:54;;;;;;;20.80;13.82;;;14.70;64.90;;;12.94;60.87;100689.41;4999520;28;20057;-81
2021/04/20 10:05:35;;;;;;;19.83;13.05;;;14.70;64.70;;;12.93;58.48;100693.16;4998029;28;20088;-81
2021/04/20 10:08:27;;;;;;;22.95;14.20;;;14.70;63.00;;;13.00;58.38;100683.16;4998730;28;20505;-81
2021/04/20 10:11:03;;;;;;;20.40;13.60;;;14.70;63.00;;;12.95;58.48;100682.94;4999390;28;20057;-81
2021/04/20 10:13:53;;;;;;;24.02;14.38;;;14.70;62.60;;;12.99;59.04;100687.78;4998929;28;20062;-81
2021/04/20 10:16:26;;;;;;;22.58;13.65;;;14.80;63.00;;;13.13;60.85;100688.75;4999181;28;20050;-81
2021/04/20 10:19:15;;;;;;;26.27;14.40;;;14.80;65.00;;;13.10;58.82;100686.41;4999860;28;20057;-81
2021/04/20 10:22:01;;;;;;;22.17;15.00;;;14.90;63.10;;;13.07;58.30;100682.16;4999124;28;20085;-81
2021/04/20 10:24:31;;;;;;;22.83;14.32;;;14.80;62.20;;;13.13;57.06;100677.81;4997322;28;20081;-81
2021/04/20 10:27:05;;;;;;;22.35;13.60;;;14.90;61.50;;;13.17;58.15;100683.72;4999126;28;20116;-81
2021/04/20 10:29:38;;;;;;;21.05;13.32;;;14.90;62.20;;;13.16;57.63;100679.31;4995982;28;20042;-84